Time,TemperatureF,DewpointF,PressureIn,WindDirection,WindDirectionDegrees,WindSpeedMPH,WindSpeedGustMPH,Humidity,HourlyPrecipIn,Conditions,Clouds,dailyrainin,SolarRadiationWatts/m^2,SoftwareType,DateUTC
2013-01-02 00:05:00,12.1,8.7,30.10,South,188,0.0,0.0,86,0.00,,,0.00,0,Wunderground v.1.15,2013-01-02 06:05:00,
2013-01-02 00:15:00,11.6,8.2,30.10,South,188,0.0,0.0,86,0.00,,,0.00,0,Wunderground v.1.15,2013-01-02 06:15:00,
2013-01-02 00:25:00,11.6,8.5,30.10,South,188,0.0,0.0,87,0.00,,,0.00,0,Wunderground v.1.15,2013-01-02 06:25:00,
2013-01-02 00:35:00,12.0,8.9,30.09,South,188,0.0,0.0,87,0.00,,,0.00,0,Wunderground v.1.15,2013-01-02 06:35:00,
2013-01-02 00:45:00,12.0,8.9,30.09,South,188,0.0,0.0,87,0.00,,,0.00,0,Wunderground v.1.15,2013-01-02 06:45:00,
2013-01-02 00:55:00,12.0,9.1,30.09,South,188,0.0,0.0,88,0.00,,,0.00,0,Wunderground v.1.15,2013-01-02 06:55:00,
2013-01-02 01:05:00,11.9,8.8,30.09,South,188,0.0,0.0,87,0.00,,,0.00,0,Wunderground v.1.15,2013-01-02 07:05:00,
2013-01-02 01:10:00,11.5,8.4,30.09,South,188,0.0,0.0,87,0.00,,,0.00,0,Wunderground v.1.15,2013-01-02 07:10:00,
2013-01-02 01:20:00,12.2,9.3,30.08,South,188,0.0,0.0,88,0.00,,,0.00,0,Wunderground v.1.15,2013-01-02 07:20:00,
2013-01-02 01:30:00,12.8,10.2,30.08,South,188,0.0,0.0,89,0.00,,,0.00,0,Wunderground v.1.15,2013-01-02 07:30:00,
2013-01-02 01:40:00,14.3,11.7,30.08,South,189,0.0,0.0,89,0.00,,,0.00,0,Wunderground v.1.15,2013-01-02 07:40:00,
2013-01-02 01:45:00,14.4,11.8,30.08,South,189,0.0,0.0,89,0.00,,,0.00,0,Wunderground v.1.15,2013-01-02 07:45:00,
2013-01-02 01:55:00,14.4,11.5,30.08,South,189,0.0,0.0,88,0.00,,,0.00,0,Wunderground v.1.15,2013-01-02 07:55:00,
2013-01-02 02:05:00,14.4,11.5,30.08,South,189,0.0,0.0,88,0.00,,,0.00,0,Wunderground v.1.15,2013-01-02 08:05:00,
2013-01-02 02:15:00,12.3,9.2,30.08,South,189,0.0,0.0,87,0.00,,,0.00,0,Wunderground v.1.15,2013-01-02 08:15:00,
2013-01-02 02:20:00,12.6,9.7,30.08,South,189,0.0,0.0,88,0.00,,,0.00,0,Wunderground v.1.15,2013-01-02 08:20:00,
2013-01-02 02:30:00,13.6,10.7,30.07,South,189,0.0,0.0,88,0.00,,,0.00,0,Wunderground v.1.15,2013-01-02 08:30:00,
2013-01-02 02:40:00,13.9,11.0,30.07,South,189,0.0,0.0,88,0.00,,,0.00,0,Wunderground v.1.15,2013-01-02 08:40:00,
2013-01-02 02:50:00,13.8,10.9,30.07,South,189,0.0,0.0,88,0.00,,,0.00,0,Wunderground v.1.15,2013-01-02 08:50:00,
2013-01-02 02:55:00,14.1,11.2,30.07,South,189,0.0,0.0,88,0.00,,,0.00,0,Wunderground v.1.15,2013-01-02 08:55:00,
2013-01-02 03:00:00,14.1,11.2,30.07,South,190,0.0,0.0,88,0.00,,,0.00,0,Wunderground v.1.15,2013-01-02 09:00:00,
2013-01-02 03:05:00,14.3,11.4,30.07,South,190,0.0,0.0,88,0.00,,,0.00,0,Wunderground v.1.15,2013-01-02 09:05:00,
2013-01-02 03:15:00,14.0,10.8,30.06,South,190,0.0,0.0,87,0.00,,,0.00,0,Wunderground v.1.15,2013-01-02 09:15:00,
2013-01-02 03:25:00,14.1,11.2,30.06,South,190,0.0,0.0,88,0.00,,,0.00,0,Wunderground v.1.15,2013-01-02 09:25:00,
2013-01-02 03:35:00,14.4,11.2,30.06,SW,220,0.0,0.0,87,0.00,,,0.00,0,Wunderground v.1.15,2013-01-02 09:35:00,
2013-01-02 03:40:00,14.5,11.3,30.06,SW,220,0.0,0.0,87,0.00,,,0.00,0,Wunderground v.1.15,2013-01-02 09:40:00,
2013-01-02 03:50:00,14.5,11.3,30.05,SW,220,0.0,0.0,87,0.00,,,0.00,0,Wunderground v.1.15,2013-01-02 09:50:00,
2013-01-02 04:00:00,14.3,11.1,30.04,SW,221,0.0,0.0,87,0.00,,,0.00,0,Wunderground v.1.15,2013-01-02 10:00:00,
2013-01-02 04:05:00,14.4,11.2,30.04,SW,221,0.0,0.0,87,0.00,,,0.00,0,Wunderground v.1.15,2013-01-02 10:05:00,
2013-01-02 04:15:00,14.8,11.6,30.04,WSW,248,0.0,1.0,87,0.00,,,0.00,0,Wunderground v.1.15,2013-01-02 10:15:00,
2013-01-02 04:20:00,15.0,11.6,30.04,WSW,249,0.0,2.0,86,0.00,,,0.00,0,Wunderground v.1.15,2013-01-02 10:20:00,
2013-01-02 04:25:00,15.2,11.8,30.04,WSW,249,0.0,2.0,86,0.00,,,0.00,0,Wunderground v.1.15,2013-01-02 10:25:00,
2013-01-02 04:35:00,15.5,12.1,30.04,SW,225,1.0,3.0,86,0.00,,,0.00,0,Wunderground v.1.15,2013-01-02 10:35:00,
2013-01-02 04:40:00,15.5,12.1,30.04,SW,229,1.0,1.0,86,0.00,,,0.00,0,Wunderground v.1.15,2013-01-02 10:40:00,
2013-01-02 04:45:00,15.4,11.7,30.04,SW,229,0.0,1.0,85,0.00,,,0.00,0,Wunderground v.1.15,2013-01-02 10:45:00,
2013-01-02 04:50:00,15.4,11.7,30.04,SW,232,0.0,0.0,85,0.00,,,0.00,0,Wunderground v.1.15,2013-01-02 10:50:00,
2013-01-02 05:00:00,15.2,11.5,30.04,SW,232,0.0,0.0,85,0.00,,,0.00,0,Wunderground v.1.15,2013-01-02 11:00:00,
2013-01-02 05:05:00,15.0,11.3,30.04,SW,232,0.0,0.0,85,0.00,,,0.00,0,Wunderground v.1.15,2013-01-02 11:05:00,
2013-01-02 05:15:00,13.9,10.0,30.03,SW,232,0.0,0.0,84,0.00,,,0.00,0,Wunderground v.1.15,2013-01-02 11:15:00,
2013-01-02 05:20:00,14.0,10.3,30.03,SW,232,0.0,0.0,85,0.00,,,0.00,0,Wunderground v.1.15,2013-01-02 11:20:00,
2013-01-02 05:25:00,14.2,10.5,30.03,SW,232,0.0,0.0,85,0.00,,,0.00,0,Wunderground v.1.15,2013-01-02 11:25:00,
2013-01-02 05:35:00,14.1,10.4,30.04,SW,232,0.0,0.0,85,0.00,,,0.00,0,Wunderground v.1.15,2013-01-02 11:35:00,
2013-01-02 05:40:00,14.2,10.5,30.04,SW,233,0.0,0.0,85,0.00,,,0.00,0,Wunderground v.1.15,2013-01-02 11:40:00,
2013-01-02 05:45:00,14.2,10.5,30.03,SW,232,0.0,0.0,85,0.00,,,0.00,0,Wunderground v.1.15,2013-01-02 11:45:00,
2013-01-02 05:55:00,14.0,10.3,30.03,SW,232,0.0,0.0,85,0.00,,,0.00,0,Wunderground v.1.15,2013-01-02 11:55:00,
2013-01-02 06:00:00,14.1,10.4,30.04,SW,232,0.0,0.0,85,0.00,,,0.00,0,Wunderground v.1.15,2013-01-02 12:00:00,
2013-01-02 06:10:00,14.1,10.4,30.04,SW,233,0.0,0.0,85,0.00,,,0.00,0,Wunderground v.1.15,2013-01-02 12:10:00,
2013-01-02 06:20:00,14.2,10.5,30.04,SW,232,0.0,3.0,85,0.00,,,0.00,0,Wunderground v.1.15,2013-01-02 12:20:00,
2013-01-02 06:25:00,14.1,10.4,30.04,SW,232,0.0,3.0,85,0.00,,,0.00,0,Wunderground v.1.15,2013-01-02 12:25:00,
2013-01-02 06:30:00,14.1,10.4,30.04,SW,234,0.0,3.0,85,0.00,,,0.00,0,Wunderground v.1.15,2013-01-02 12:30:00,
2013-01-02 06:35:00,14.1,10.2,30.04,SW,234,1.0,3.0,84,0.00,,,0.00,0,Wunderground v.1.15,2013-01-02 12:35:00,
2013-01-02 06:40:00,14.3,10.4,30.04,SW,234,0.0,3.0,84,0.00,,,0.00,0,Wunderground v.1.15,2013-01-02 12:40:00,
2013-01-02 06:45:00,14.3,10.4,30.04,SW,235,0.0,3.0,84,0.00,,,0.00,0,Wunderground v.1.15,2013-01-02 12:45:00,
2013-01-02 06:55:00,14.4,10.4,30.04,West,270,1.0,3.0,84,0.00,,,0.00,0,Wunderground v.1.15,2013-01-02 12:55:00,
2013-01-02 07:05:00,14.4,10.4,30.04,WSW,241,1.0,3.0,84,0.00,,,0.00,0,Wunderground v.1.15,2013-01-02 13:05:00,
2013-01-02 07:10:00,14.3,12.4,30.04,WSW,242,0.0,3.0,92,0.00,,,0.00,0,Wunderground v.1.15,2013-01-02 13:10:00,
2013-01-02 07:15:00,14.3,10.1,30.04,WSW,242,0.0,3.0,83,0.00,,,0.00,0,Wunderground v.1.15,2013-01-02 13:15:00,
2013-01-02 07:20:00,14.1,9.9,30.04,WSW,242,0.0,3.0,83,0.00,,,0.00,0,Wunderground v.1.15,2013-01-02 13:20:00,
2013-01-02 07:25:00,14.0,9.8,30.04,WSW,242,0.0,3.0,83,0.00,,,0.00,0,Wunderground v.1.15,2013-01-02 13:25:00,
2013-01-02 07:35:00,13.9,10.0,30.03,WSW,242,0.0,3.0,84,0.00,,,0.00,0,Wunderground v.1.15,2013-01-02 13:35:00,
2013-01-02 07:40:00,13.9,10.0,30.03,WSW,242,0.0,3.0,84,0.00,,,0.00,0,Wunderground v.1.15,2013-01-02 13:40:00,
2013-01-02 07:45:00,13.8,9.9,30.03,WSW,242,0.0,3.0,84,0.00,,,0.00,0,Wunderground v.1.15,2013-01-02 13:45:00,
2013-01-02 07:55:00,14.1,10.2,30.03,WSW,242,0.0,3.0,84,0.00,,,0.00,9,Wunderground v.1.15,2013-01-02 13:55:00,
2013-01-02 08:00:00,14.5,10.5,30.04,WSW,251,0.0,3.0,84,0.00,,,0.00,16,Wunderground v.1.15,2013-01-02 14:00:00,
2013-01-02 08:10:00,15.0,10.8,30.04,WNW,289,0.0,3.0,83,0.00,,,0.00,32,Wunderground v.1.15,2013-01-02 14:10:00,
2013-01-02 08:15:00,15.2,11.0,30.05,WNW,288,1.0,3.0,83,0.00,,,0.00,25,Wunderground v.1.15,2013-01-02 14:15:00,
2013-01-02 08:20:00,15.3,11.1,30.05,WNW,286,1.0,1.0,83,0.00,,,0.00,54,Wunderground v.1.15,2013-01-02 14:20:00,
2013-01-02 08:25:00,15.4,10.9,30.05,West,277,1.0,3.0,82,0.00,,,0.00,26,Wunderground v.1.15,2013-01-02 14:25:00,
2013-01-02 08:30:00,15.6,11.1,30.04,West,277,1.0,3.0,82,0.00,,,0.00,28,Wunderground v.1.15,2013-01-02 14:30:00,
2013-01-02 08:35:00,15.7,11.2,30.04,West,275,0.0,3.0,82,0.00,,,0.00,32,Wunderground v.1.15,2013-01-02 14:35:00,
2013-01-02 08:40:00,15.9,11.4,30.04,West,275,0.0,3.0,82,0.00,,,0.00,37,Wunderground v.1.15,2013-01-02 14:40:00,
2013-01-02 08:50:00,16.2,11.4,30.03,West,275,0.0,3.0,81,0.00,,,0.00,49,Wunderground v.1.15,2013-01-02 14:50:00,
2013-01-02 09:00:00,16.7,11.9,30.04,West,275,0.0,3.0,81,0.00,,,0.00,54,Wunderground v.1.15,2013-01-02 15:00:00,
2013-01-02 09:10:00,17.3,12.5,30.04,West,275,0.0,3.0,81,0.00,,,0.00,67,Wunderground v.1.15,2013-01-02 15:10:00,
2013-01-02 09:15:00,17.5,12.4,30.05,West,275,0.0,3.0,80,0.00,,,0.00,70,Wunderground v.1.15,2013-01-02 15:15:00,
2013-01-02 09:25:00,17.8,12.7,30.05,West,275,0.0,3.0,80,0.00,,,0.00,81,Wunderground v.1.15,2013-01-02 15:25:00,
2013-01-02 09:35:00,18.1,13.0,30.05,West,275,0.0,3.0,80,0.00,,,0.00,109,Wunderground v.1.15,2013-01-02 15:35:00,
2013-01-02 09:45:00,18.5,13.1,30.06,West,275,0.0,3.0,79,0.00,,,0.00,134,Wunderground v.1.15,2013-01-02 15:45:00,
2013-01-02 09:55:00,19.1,13.9,30.06,West,275,0.0,3.0,80,0.00,,,0.00,151,Wunderground v.1.15,2013-01-02 15:55:00,
2013-01-02 10:05:00,19.6,14.1,30.06,West,275,0.0,3.0,79,0.00,,,0.00,153,Wunderground v.1.15,2013-01-02 16:05:00,
2013-01-02 10:10:00,19.7,14.2,30.06,West,275,0.0,3.0,79,0.00,,,0.00,153,Wunderground v.1.15,2013-01-02 16:10:00,
2013-01-02 10:15:00,20.2,14.7,30.07,West,275,0.0,3.0,79,0.00,,,0.00,153,Wunderground v.1.15,2013-01-02 16:15:00,
2013-01-02 10:20:00,20.4,14.9,30.07,West,275,0.0,3.0,79,0.00,,,0.00,153,Wunderground v.1.15,2013-01-02 16:20:00,
2013-01-02 10:30:00,21.2,15.7,30.07,West,275,0.0,3.0,79,0.00,,,0.00,135,Wunderground v.1.15,2013-01-02 16:30:00,
2013-01-02 10:40:00,22.0,16.5,30.07,West,274,1.0,1.0,79,0.00,,,0.00,156,Wunderground v.1.15,2013-01-02 16:40:00,
2013-01-02 10:50:00,22.8,17.3,30.07,West,274,0.0,3.0,79,0.00,,,0.00,156,Wunderground v.1.15,2013-01-02 16:50:00,
2013-01-02 11:00:00,22.9,17.1,30.07,West,274,0.0,3.0,78,0.00,,,0.00,158,Wunderground v.1.15,2013-01-02 17:00:00,
2013-01-02 11:05:00,23.1,17.3,30.07,West,274,0.0,3.0,78,0.00,,,0.00,204,Wunderground v.1.15,2013-01-02 17:05:00,
2013-01-02 11:15:00,24.0,18.4,30.07,West,274,0.0,3.0,79,0.00,,,0.00,227,Wunderground v.1.15,2013-01-02 17:15:00,
2013-01-02 11:25:00,24.4,18.8,30.07,West,270,1.0,3.0,79,0.00,,,0.00,188,Wunderground v.1.15,2013-01-02 17:25:00,
2013-01-02 11:30:00,24.6,19.0,30.06,West,269,0.0,3.0,79,0.00,,,0.00,183,Wunderground v.1.15,2013-01-02 17:30:00,
2013-01-02 11:40:00,25.1,19.5,30.06,West,269,1.0,3.0,79,0.00,,,0.00,167,Wunderground v.1.15,2013-01-02 17:40:00,
2013-01-02 11:50:00,25.5,20.2,30.06,West,269,0.0,3.0,80,0.00,,,0.00,183,Wunderground v.1.15,2013-01-02 17:50:00,
2013-01-02 12:00:00,26.2,20.9,30.06,West,270,0.0,3.0,80,0.00,,,0.00,251,Wunderground v.1.15,2013-01-02 18:00:00,
2013-01-02 12:10:00,27.3,21.9,30.06,West,273,1.0,1.0,80,0.00,,,0.00,443,Wunderground v.1.15,2013-01-02 18:10:00,
2013-01-02 12:20:00,28.5,22.8,30.05,West,269,1.0,3.0,79,0.00,,,0.00,343,Wunderground v.1.15,2013-01-02 18:20:00,
2013-01-02 12:30:00,29.6,24.2,30.05,WNW,284,2.0,3.0,80,0.00,,,0.00,306,Wunderground v.1.15,2013-01-02 18:30:00,
2013-01-02 12:35:00,29.8,24.4,30.05,WNW,301,2.0,3.0,80,0.00,,,0.00,327,Wunderground v.1.15,2013-01-02 18:35:00,
2013-01-02 12:45:00,30.6,25.2,30.03,WNW,292,2.0,3.0,80,0.00,,,0.00,234,Wunderground v.1.15,2013-01-02 18:45:00,
2013-01-02 12:50:00,30.9,25.5,30.03,NW,306,2.0,4.0,80,0.00,,,0.00,373,Wunderground v.1.15,2013-01-02 18:50:00,
2013-01-02 13:00:00,32.0,26.2,30.03,WNW,286,2.0,2.0,79,0.00,,,0.00,434,Wunderground v.1.15,2013-01-02 19:00:00,
2013-01-02 13:10:00,33.0,26.9,30.03,NNW,332,2.0,3.0,78,0.00,,,0.00,345,Wunderground v.1.15,2013-01-02 19:10:00,
2013-01-02 13:15:00,33.2,26.8,30.03,NW,317,2.0,4.0,77,0.00,,,0.00,248,Wunderground v.1.15,2013-01-02 19:15:00,
2013-01-02 13:20:00,33.3,26.9,30.03,NNW,336,3.0,3.0,77,0.00,,,0.00,156,Wunderground v.1.15,2013-01-02 19:20:00,
2013-01-02 13:30:00,33.8,27.0,30.02,NNW,328,2.0,2.0,76,0.00,,,0.00,163,Wunderground v.1.15,2013-01-02 19:30:00,
2013-01-02 13:40:00,33.6,26.8,30.02,NW,309,3.0,5.0,76,0.00,,,0.00,251,Wunderground v.1.15,2013-01-02 19:40:00,
2013-01-02 13:50:00,33.8,27.4,30.02,NNW,331,4.0,4.0,77,0.00,,,0.00,176,Wunderground v.1.15,2013-01-02 19:50:00,
2013-01-02 14:00:00,33.9,27.4,30.03,WNW,302,4.0,4.0,77,0.00,,,0.00,229,Wunderground v.1.15,2013-01-02 20:00:00,
2013-01-02 14:10:00,33.9,27.8,30.03,WNW,292,3.0,6.0,78,0.00,,,0.00,287,Wunderground v.1.15,2013-01-02 20:10:00,
2013-01-02 14:20:00,33.9,28.1,30.02,WNW,297,3.0,6.0,79,0.00,,,0.00,211,Wunderground v.1.15,2013-01-02 20:20:00,
2013-01-02 14:30:00,33.4,27.9,30.03,NW,317,3.0,3.0,80,0.00,,,0.00,128,Wunderground v.1.15,2013-01-02 20:30:00,
2013-01-02 14:40:00,33.4,28.2,30.03,WNW,301,3.0,3.0,81,0.00,,,0.00,135,Wunderground v.1.15,2013-01-02 20:40:00,
2013-01-02 14:50:00,33.4,28.2,30.03,WNW,303,2.0,2.0,81,0.00,,,0.00,97,Wunderground v.1.15,2013-01-02 20:50:00,
2013-01-02 15:00:00,33.4,28.2,30.04,WNW,302,2.0,3.0,81,0.00,,,0.00,47,Wunderground v.1.15,2013-01-02 21:00:00,
2013-01-02 15:10:00,33.4,28.5,30.04,NW,313,3.0,4.0,82,0.00,,,0.00,42,Wunderground v.1.15,2013-01-02 21:10:00,
2013-01-02 15:15:00,33.4,28.5,30.04,NW,315,3.0,4.0,82,0.00,,,0.00,49,Wunderground v.1.15,2013-01-02 21:15:00,
2013-01-02 15:25:00,33.5,28.6,30.04,NW,313,3.0,6.0,82,0.00,,,0.00,42,Wunderground v.1.15,2013-01-02 21:25:00,
2013-01-02 15:35:00,33.6,29.0,30.05,NNW,332,1.0,3.0,83,0.00,,,0.00,53,Wunderground v.1.15,2013-01-02 21:35:00,
2013-01-02 15:45:00,33.6,29.0,30.05,NW,323,1.0,3.0,83,0.00,,,0.00,47,Wunderground v.1.15,2013-01-02 21:45:00,
2013-01-02 15:50:00,33.6,29.0,30.05,NW,314,2.0,2.0,83,0.00,,,0.00,40,Wunderground v.1.15,2013-01-02 21:50:00,
2013-01-02 16:00:00,33.6,29.0,30.06,NW,309,2.0,3.0,83,0.00,,,0.00,28,Wunderground v.1.15,2013-01-02 22:00:00,
2013-01-02 16:10:00,33.6,29.0,30.06,NW,310,1.0,3.0,83,0.00,,,0.00,19,Wunderground v.1.15,2013-01-02 22:10:00,
2013-01-02 16:15:00,33.6,29.0,30.06,NW,311,1.0,3.0,83,0.00,,,0.00,16,Wunderground v.1.15,2013-01-02 22:15:00,
2013-01-02 16:20:00,33.6,29.0,30.06,NW,313,2.0,3.0,83,0.00,,,0.00,16,Wunderground v.1.15,2013-01-02 22:20:00,
2013-01-02 16:30:00,33.5,28.9,30.07,NW,309,2.0,2.0,83,0.00,,,0.00,21,Wunderground v.1.15,2013-01-02 22:30:00,
2013-01-02 16:40:00,33.5,28.6,30.07,WNW,301,2.0,3.0,82,0.00,,,0.00,12,Wunderground v.1.15,2013-01-02 22:40:00,
2013-01-02 16:45:00,33.5,28.6,30.07,NW,308,2.0,5.0,82,0.00,,,0.00,11,Wunderground v.1.15,2013-01-02 22:45:00,
2013-01-02 16:55:00,33.4,28.5,30.07,NW,316,1.0,3.0,82,0.00,,,0.00,5,Wunderground v.1.15,2013-01-02 22:55:00,
2013-01-02 17:05:00,33.4,28.5,30.08,NW,309,2.0,3.0,82,0.00,,,0.00,0,Wunderground v.1.15,2013-01-02 23:05:00,
2013-01-02 17:15:00,33.3,28.4,30.08,NW,315,2.0,3.0,82,0.00,,,0.00,0,Wunderground v.1.15,2013-01-02 23:15:00,
2013-01-02 17:25:00,33.3,28.4,30.08,NW,321,2.0,3.0,82,0.00,,,0.00,0,Wunderground v.1.15,2013-01-02 23:25:00,
2013-01-02 17:35:00,33.2,28.3,30.09,NW,321,0.0,3.0,82,0.00,,,0.00,0,Wunderground v.1.15,2013-01-02 23:35:00,
2013-01-02 17:45:00,33.1,28.2,30.09,NW,323,1.0,3.0,82,0.00,,,0.00,0,Wunderground v.1.15,2013-01-02 23:45:00,
2013-01-02 17:55:00,33.0,27.8,30.09,NW,311,1.0,3.0,81,0.00,,,0.00,0,Wunderground v.1.15,2013-01-02 23:55:00,
2013-01-02 18:00:00,33.0,27.8,30.10,NW,310,2.0,3.0,81,0.00,,,0.00,0,Wunderground v.1.15,2013-01-03 00:00:00,
2013-01-02 18:10:00,33.0,27.8,30.10,NW,316,1.0,1.0,81,0.00,,,0.00,0,Wunderground v.1.15,2013-01-03 00:10:00,
2013-01-02 18:15:00,33.0,27.8,30.10,NW,316,1.0,2.0,81,0.00,,,0.00,0,Wunderground v.1.15,2013-01-03 00:15:00,
2013-01-02 18:25:00,33.0,27.8,30.10,NW,315,1.0,3.0,81,0.00,,,0.00,0,Wunderground v.1.15,2013-01-03 00:25:00,
2013-01-02 18:35:00,32.9,27.7,30.10,NW,324,1.0,3.0,81,0.00,,,0.00,0,Wunderground v.1.15,2013-01-03 00:35:00,
2013-01-02 18:40:00,32.9,27.7,30.10,NW,309,1.0,3.0,81,0.00,,,0.00,0,Wunderground v.1.15,2013-01-03 00:40:00,
2013-01-02 18:50:00,32.9,27.7,30.10,NW,314,2.0,3.0,81,0.00,,,0.00,0,Wunderground v.1.15,2013-01-03 00:50:00,
2013-01-02 19:00:00,32.9,27.7,30.11,WNW,298,1.0,1.0,81,0.00,,,0.00,0,Wunderground v.1.15,2013-01-03 01:00:00,
2013-01-02 19:10:00,32.7,27.5,30.11,WNW,302,1.0,3.0,81,0.00,,,0.00,0,Wunderground v.1.15,2013-01-03 01:10:00,
2013-01-02 19:20:00,32.7,27.8,30.11,NW,304,1.0,3.0,82,0.00,,,0.00,0,Wunderground v.1.15,2013-01-03 01:20:00,
2013-01-02 19:30:00,32.7,27.5,30.11,WNW,288,2.0,2.0,81,0.00,,,0.00,0,Wunderground v.1.15,2013-01-03 01:30:00,
2013-01-02 19:40:00,32.5,27.3,30.11,WNW,288,1.0,1.0,81,0.00,,,0.00,0,Wunderground v.1.15,2013-01-03 01:40:00,
2013-01-02 19:50:00,32.4,27.5,30.12,WNW,295,1.0,3.0,82,0.00,,,0.00,0,Wunderground v.1.15,2013-01-03 01:50:00,
2013-01-02 20:00:00,32.3,27.4,30.12,WNW,287,1.0,1.0,82,0.00,,,0.00,0,Wunderground v.1.15,2013-01-03 02:00:00,
2013-01-02 20:10:00,32.4,27.5,30.12,NW,311,1.0,3.0,82,0.00,,,0.00,0,Wunderground v.1.15,2013-01-03 02:10:00,
2013-01-02 20:20:00,32.4,27.5,30.12,NW,317,1.0,3.0,82,0.00,,,0.00,0,Wunderground v.1.15,2013-01-03 02:20:00,
2013-01-02 20:25:00,32.4,27.5,30.12,NW,313,1.0,3.0,82,0.00,,,0.00,0,Wunderground v.1.15,2013-01-03 02:25:00,
2013-01-02 20:35:00,32.3,27.1,30.12,NW,315,1.0,3.0,81,0.00,,,0.00,0,Wunderground v.1.15,2013-01-03 02:35:00,
2013-01-02 20:40:00,32.2,27.3,30.12,NW,315,1.0,1.0,82,0.00,,,0.00,0,Wunderground v.1.15,2013-01-03 02:40:00,
2013-01-02 20:45:00,32.1,27.2,30.13,NW,313,1.0,3.0,82,0.00,,,0.00,0,Wunderground v.1.15,2013-01-03 02:45:00,
2013-01-02 20:55:00,32.0,27.1,30.13,NW,309,2.0,4.0,82,0.00,,,0.00,0,Wunderground v.1.15,2013-01-03 02:55:00,
2013-01-02 21:05:00,31.9,27.0,30.13,NW,306,1.0,3.0,82,0.00,,,0.00,0,Wunderground v.1.15,2013-01-03 03:05:00,
2013-01-02 21:15:00,31.9,27.0,30.14,NW,306,1.0,3.0,82,0.00,,,0.00,0,Wunderground v.1.15,2013-01-03 03:15:00,
2013-01-02 21:25:00,31.9,27.0,30.14,NW,306,0.0,3.0,82,0.00,,,0.00,0,Wunderground v.1.15,2013-01-03 03:25:00,
2013-01-02 21:30:00,31.9,27.0,30.14,NW,306,1.0,3.0,82,0.00,,,0.00,0,Wunderground v.1.15,2013-01-03 03:30:00,
2013-01-02 21:40:00,31.8,26.9,30.14,NW,306,1.0,3.0,82,0.00,,,0.00,0,Wunderground v.1.15,2013-01-03 03:40:00,
2013-01-02 21:50:00,31.7,26.8,30.15,NW,306,1.0,3.0,82,0.00,,,0.00,0,Wunderground v.1.15,2013-01-03 03:50:00,
2013-01-02 22:00:00,31.6,27.0,30.16,NW,309,1.0,3.0,83,0.00,,,0.00,0,Wunderground v.1.15,2013-01-03 04:00:00,
2013-01-02 22:05:00,31.6,27.0,30.16,NW,309,1.0,3.0,83,0.00,,,0.00,0,Wunderground v.1.15,2013-01-03 04:05:00,
2013-01-02 22:15:00,31.6,27.0,30.16,WNW,298,1.0,3.0,83,0.00,,,0.00,0,Wunderground v.1.15,2013-01-03 04:15:00,
2013-01-02 22:20:00,31.6,27.0,30.16,NW,312,1.0,3.0,83,0.00,,,0.00,0,Wunderground v.1.15,2013-01-03 04:20:00,
2013-01-02 22:30:00,31.6,27.0,30.16,WNW,298,2.0,2.0,83,0.00,,,0.00,0,Wunderground v.1.15,2013-01-03 04:30:00,
2013-01-02 22:40:00,31.5,26.9,30.16,NW,315,1.0,3.0,83,0.00,,,0.00,0,Wunderground v.1.15,2013-01-03 04:40:00,
2013-01-02 22:45:00,31.4,26.8,30.17,NW,315,1.0,3.0,83,0.00,,,0.00,0,Wunderground v.1.15,2013-01-03 04:45:00,
2013-01-02 22:55:00,31.4,26.8,30.17,NW,315,0.0,1.0,83,0.00,,,0.00,0,Wunderground v.1.15,2013-01-03 04:55:00,
2013-01-02 23:05:00,31.2,26.6,30.17,NW,315,0.0,0.0,83,0.00,,,0.00,0,Wunderground v.1.15,2013-01-03 05:05:00,
2013-01-02 23:10:00,31.1,26.5,30.17,WNW,302,0.0,0.0,83,0.00,,,0.00,0,Wunderground v.1.15,2013-01-03 05:10:00,
2013-01-02 23:15:00,31.0,26.4,30.17,WNW,303,0.0,0.0,83,0.00,,,0.00,0,Wunderground v.1.15,2013-01-03 05:15:00,
2013-01-02 23:20:00,30.9,26.3,30.17,WNW,303,0.0,0.0,83,0.00,,,0.00,0,Wunderground v.1.15,2013-01-03 05:20:00,
2013-01-02 23:25:00,30.8,26.5,30.17,WNW,302,0.0,0.0,84,0.00,,,0.00,0,Wunderground v.1.15,2013-01-03 05:25:00,
2013-01-02 23:35:00,30.7,26.4,30.18,WNW,303,0.0,0.0,84,0.00,,,0.00,0,Wunderground v.1.15,2013-01-03 05:35:00,
2013-01-02 23:40:00,30.6,26.3,30.18,WNW,302,0.0,0.0,84,0.00,,,0.00,0,Wunderground v.1.15,2013-01-03 05:40:00,
2013-01-02 23:50:00,30.6,26.3,30.18,NW,305,0.0,3.0,84,0.00,,,0.00,0,Wunderground v.1.15,2013-01-03 05:50:00,